createdAt,value
2018-01-02T00:01:12.000Z,993.208
2018-01-02T00:11:12.000Z,993.399
2018-01-02T00:21:12.000Z,993.543
2018-01-02T00:31:12.000Z,993.743
2018-01-02T00:41:12.000Z,993.984
2018-01-02T00:51:12.000Z,994.169
2018-01-02T01:01:12.000Z,994.376
2018-01-02T01:11:12.000Z,994.559
2018-01-02T01:21:12.000Z,994.788
2018-01-02T01:31:12.000Z,994.981
2018-01-02T01:41:12.000Z,995.171
2018-01-02T01:51:12.000Z,995.394
2018-01-02T02:01:12.000Z,995.567
2018-01-02T02:11:12.000Z,995.715
2018-01-02T02:21:12.000Z,995.812
2018-01-02T02:31:12.000Z,995.844
2018-01-02T02:41:12.000Z,995.876
2018-01-02T02:51:12.000Z,995.986
2018-01-02T03:01:12.000Z,996.114
2018-01-02T03:11:12.000Z,996.225
2018-01-02T03:21:13.000Z,996.299
2018-01-02T03:31:13.000Z,996.393
2018-01-02T03:41:13.000Z,996.571
2018-01-02T03:51:13.000Z,996.657
2018-01-02T04:01:13.000Z,996.787
2018-01-02T04:11:13.000Z,996.907
2018-01-02T04:21:13.000Z,997.003
2018-01-02T04:31:13.000Z,997.153
2018-01-02T04:41:13.000Z,997.234
2018-01-02T04:51:13.000Z,997.425
2018-01-02T05:01:13.000Z,997.598
2018-01-02T05:11:13.000Z,997.799
2018-01-02T05:21:13.000Z,997.979
2018-01-02T05:31:13.000Z,998.171
2018-01-02T05:41:13.000Z,998.276
2018-01-02T05:51:13.000Z,998.45
2018-01-02T06:01:13.000Z,998.564
2018-01-02T06:11:15.000Z,998.826
2018-01-02T06:21:13.000Z,999.066
2018-01-02T06:31:13.000Z,999.296
2018-01-02T06:41:15.000Z,999.32
2018-01-02T06:51:13.000Z,999.441
2018-01-02T07:01:13.000Z,999.596
2018-01-02T07:11:13.000Z,999.783
2018-01-02T07:21:13.000Z,999.962
2018-01-02T07:31:13.000Z,1000.078
2018-01-02T07:41:13.000Z,1000.219
2018-01-02T07:51:13.000Z,1000.325
2018-01-02T08:01:13.000Z,1000.463
2018-01-02T08:11:13.000Z,1000.566
2018-01-02T08:21:13.000Z,1000.71
2018-01-02T08:31:13.000Z,1000.97
2018-01-02T08:41:13.000Z,1001.153
2018-01-02T08:51:13.000Z,1001.289
2018-01-02T09:01:13.000Z,1001.503
2018-01-02T09:11:13.000Z,1001.694
2018-01-02T09:21:13.000Z,1001.834
2018-01-02T09:31:13.000Z,1001.86
2018-01-02T09:41:13.000Z,1002.066
2018-01-02T09:51:13.000Z,1002.15
2018-01-02T10:01:13.000Z,1002.275
2018-01-02T10:11:13.000Z,1002.457
2018-01-02T10:21:13.000Z,1002.542
2018-01-02T10:31:13.000Z,1002.558
2018-01-02T10:41:13.000Z,1002.601
2018-01-02T10:51:13.000Z,1002.71
2018-01-02T11:01:13.000Z,1002.676
2018-01-02T11:11:13.000Z,1002.731
2018-01-02T11:21:13.000Z,1002.92
2018-01-02T11:31:14.000Z,1003.104
2018-01-02T11:41:13.000Z,1003.167
2018-01-02T11:51:14.000Z,1003.206
2018-01-02T12:01:14.000Z,1003.05
2018-01-02T12:11:14.000Z,1003.005
2018-01-02T12:21:14.000Z,1002.878
2018-01-02T12:31:14.000Z,1002.74
2018-01-02T12:41:14.000Z,1002.644
2018-01-02T12:51:14.000Z,1002.664
2018-01-02T13:01:14.000Z,1002.587
2018-01-02T13:11:14.000Z,1002.583
2018-01-02T13:21:14.000Z,1002.573
2018-01-02T13:31:14.000Z,1002.685
2018-01-02T13:41:14.000Z,1002.653
2018-01-02T13:51:14.000Z,1002.799
2018-01-02T14:01:14.000Z,1003
2018-01-02T14:11:14.000Z,1002.843
2018-01-02T14:21:14.000Z,1002.79
2018-01-02T14:31:14.000Z,1002.685
2018-01-02T14:41:14.000Z,1002.57
2018-01-02T14:51:14.000Z,1002.403
2018-01-02T15:01:15.000Z,1002.165
2018-01-02T15:11:15.000Z,1002.279
2018-01-02T15:21:14.000Z,1002.115
2018-01-02T15:31:14.000Z,1002.289
2018-01-02T15:41:14.000Z,1002.348
2018-01-02T15:51:16.000Z,1002.369
2018-01-02T16:01:14.000Z,1002.168
2018-01-02T16:11:16.000Z,1002.12
2018-01-02T16:21:14.000Z,1002.129
2018-01-02T16:31:14.000Z,1001.889
2018-01-02T16:41:14.000Z,1001.876
2018-01-02T16:51:14.000Z,1001.48
2018-01-02T17:01:14.000Z,1001.347
2018-01-02T17:11:14.000Z,1001.209
2018-01-02T17:21:14.000Z,1001.109
2018-01-02T17:41:14.000Z,1000.751
2018-01-02T17:51:14.000Z,1000.671
2018-01-02T18:01:14.000Z,1000.449
2018-01-02T18:11:14.000Z,1000.213
2018-01-02T18:21:14.000Z,1000.062
2018-01-02T18:31:14.000Z,999.824
2018-01-02T18:41:15.000Z,999.68
2018-01-02T18:51:14.000Z,999.423
2018-01-02T19:01:14.000Z,999.262
2018-01-02T19:11:14.000Z,999.047
2018-01-02T19:21:14.000Z,998.88
2018-01-02T19:31:14.000Z,998.688
2018-01-02T19:41:15.000Z,998.381
2018-01-02T19:51:15.000Z,998.147
2018-01-02T20:01:15.000Z,997.882
2018-01-02T20:11:15.000Z,997.483
2018-01-02T20:21:15.000Z,997.224
2018-01-02T20:31:15.000Z,997.014
2018-01-02T20:51:15.000Z,996.133
2018-01-02T21:01:15.000Z,995.873
2018-01-02T21:11:15.000Z,995.599
2018-01-02T21:21:15.000Z,995.551
2018-01-02T21:31:15.000Z,995.269
2018-01-02T21:41:15.000Z,994.837
2018-01-02T21:51:15.000Z,994.42
2018-01-02T22:01:15.000Z,994.087
2018-01-02T22:11:15.000Z,993.632
2018-01-02T22:21:15.000Z,993.281
2018-01-02T22:31:15.000Z,992.84
2018-01-02T22:41:15.000Z,992.556
2018-01-02T22:51:15.000Z,992.336
2018-01-02T23:11:15.000Z,991.727
2018-01-02T23:21:15.000Z,991.413
2018-01-02T23:31:15.000Z,991.037
2018-01-02T23:41:15.000Z,990.785
2018-01-02T23:51:15.000Z,990.442
